Terminal Aerodrome Forecast
Issued by NWS Cleveland, OH

Home | Current Version | Previous Version | Graphics & Text | Print | Product List | Glossary On
Versions: 1 2 3 4 5 6 7 8 9 10 11 12 13 14 15 16 17 18
000
FTUS41 KCLE 212335
TAFTOL
TAF
KTOL 212335Z 2200/2224 36008KT P6SM BKN025
      TEMPO 2200/2203 SCT025
     FM220300 04006KT P6SM SCT025 OVC120
     FM221000 06008KT P6SM OVC025=

USA.gov is the U.S. government's official web portal to all federal, state and local government web resources and services.